sensor_id;sensor_type;location;lat;lon;timestamp;P1;durP1;ratioP1;P2;durP2;ratioP2
15476;SDS011;7840;42.702;23.296;2022-09-09T00:01:37;8.40;;;7.60;;
15476;SDS011;7840;42.702;23.296;2022-09-09T00:04:12;11.70;;;7.90;;
15476;SDS011;7840;42.702;23.296;2022-09-09T00:06:48;8.73;;;7.82;;
15476;SDS011;7840;42.702;23.296;2022-09-09T00:09:25;9.60;;;8.68;;
15476;SDS011;7840;42.702;23.296;2022-09-09T00:11:57;9.25;;;8.35;;
15476;SDS011;7840;42.702;23.296;2022-09-09T00:14:32;9.23;;;8.13;;
15476;SDS011;7840;42.702;23.296;2022-09-09T00:17:07;10.18;;;8.63;;
15476;SDS011;7840;42.702;23.296;2022-09-09T00:19:40;9.48;;;8.50;;
15476;SDS011;7840;42.702;23.296;2022-09-09T00:22:16;11.52;;;8.60;;
15476;SDS011;7840;42.702;23.296;2022-09-09T00:24:48;10.27;;;8.88;;
15476;SDS011;7840;42.702;23.296;2022-09-09T00:27:21;10.10;;;8.07;;
15476;SDS011;7840;42.702;23.296;2022-09-09T00:29:54;9.23;;;8.43;;
15476;SDS011;7840;42.702;23.296;2022-09-09T00:32:27;9.57;;;8.65;;
15476;SDS011;7840;42.702;23.296;2022-09-09T00:34:57;10.07;;;9.02;;
15476;SDS011;7840;42.702;23.296;2022-09-09T00:37:28;9.80;;;8.80;;
15476;SDS011;7840;42.702;23.296;2022-09-09T00:40:00;10.55;;;8.43;;
15476;SDS011;7840;42.702;23.296;2022-09-09T00:42:41;10.27;;;9.27;;
15476;SDS011;7840;42.702;23.296;2022-09-09T00:45:15;9.65;;;8.75;;
15476;SDS011;7840;42.702;23.296;2022-09-09T00:47:57;10.60;;;8.82;;
15476;SDS011;7840;42.702;23.296;2022-09-09T00:50:34;9.80;;;8.93;;
15476;SDS011;7840;42.702;23.296;2022-09-09T00:53:14;10.60;;;9.50;;
15476;SDS011;7840;42.702;23.296;2022-09-09T00:55:51;11.00;;;9.90;;
15476;SDS011;7840;42.702;23.296;2022-09-09T00:58:28;9.98;;;8.98;;
15476;SDS011;7840;42.702;23.296;2022-09-09T01:00:56;12.27;;;9.55;;
15476;SDS011;7840;42.702;23.296;2022-09-09T01:03:33;10.55;;;9.55;;
15476;SDS011;7840;42.702;23.296;2022-09-09T01:06:05;10.50;;;9.50;;
15476;SDS011;7840;42.702;23.296;2022-09-09T01:08:49;13.23;;;9.18;;
15476;SDS011;7840;42.702;23.296;2022-09-09T01:11:31;10.93;;;9.75;;
15476;SDS011;7840;42.702;23.296;2022-09-09T01:14:05;11.75;;;10.55;;
15476;SDS011;7840;42.702;23.296;2022-09-09T01:16:43;12.63;;;11.38;;
15476;SDS011;7840;42.702;23.296;2022-09-09T01:19:14;11.73;;;10.60;;
15476;SDS011;7840;42.702;23.296;2022-09-09T01:21:54;11.93;;;10.70;;
15476;SDS011;7840;42.702;23.296;2022-09-09T01:24:31;11.60;;;10.48;;
15476;SDS011;7840;42.702;23.296;2022-09-09T01:27:06;11.40;;;10.15;;
15476;SDS011;7840;42.702;23.296;2022-09-09T01:29:35;12.63;;;10.32;;
15476;SDS011;7840;42.702;23.296;2022-09-09T01:35:07;11.43;;;10.30;;
15476;SDS011;7840;42.702;23.296;2022-09-09T01:37:38;13.25;;;10.98;;
15476;SDS011;7840;42.702;23.296;2022-09-09T01:40:07;11.10;;;10.00;;
15476;SDS011;7840;42.702;23.296;2022-09-09T01:42:36;12.73;;;10.65;;
15476;SDS011;7840;42.702;23.296;2022-09-09T01:45:04;11.10;;;10.00;;
15476;SDS011;7840;42.702;23.296;2022-09-09T01:47:33;11.30;;;10.27;;
15476;SDS011;7840;42.702;23.296;2022-09-09T01:50:01;13.75;;;9.73;;
15476;SDS011;7840;42.702;23.296;2022-09-09T01:52:29;13.85;;;10.15;;
15476;SDS011;7840;42.702;23.296;2022-09-09T01:54:59;12.50;;;10.82;;
15476;SDS011;7840;42.702;23.296;2022-09-09T01:57:27;12.23;;;10.70;;
15476;SDS011;7840;42.702;23.296;2022-09-09T02:00:03;11.45;;;10.02;;
15476;SDS011;7840;42.702;23.296;2022-09-09T02:02:35;10.65;;;9.57;;
15476;SDS011;7840;42.702;23.296;2022-09-09T02:05:17;12.00;;;10.68;;
15476;SDS011;7840;42.702;23.296;2022-09-09T02:07:53;11.77;;;9.95;;
15476;SDS011;7840;42.702;23.296;2022-09-09T02:12:59;10.55;;;9.55;;
15476;SDS011;7840;42.702;23.296;2022-09-09T02:15:32;10.68;;;9.68;;
15476;SDS011;7840;42.702;23.296;2022-09-09T02:18:08;10.32;;;9.30;;
15476;SDS011;7840;42.702;23.296;2022-09-09T02:20:38;11.05;;;9.90;;
15476;SDS011;7840;42.702;23.296;2022-09-09T02:23:09;10.93;;;9.93;;
15476;SDS011;7840;42.702;23.296;2022-09-09T02:25:39;10.65;;;9.68;;
15476;SDS011;7840;42.702;23.296;2022-09-09T02:28:08;10.93;;;9.93;;
15476;SDS011;7840;42.702;23.296;2022-09-09T02:30:39;10.73;;;9.73;;
15476;SDS011;7840;42.702;23.296;2022-09-09T02:33:08;10.57;;;9.57;;
15476;SDS011;7840;42.702;23.296;2022-09-09T02:35:39;11.95;;;10.77;;
15476;SDS011;7840;42.702;23.296;2022-09-09T02:38:10;12.07;;;10.40;;
15476;SDS011;7840;42.702;23.296;2022-09-09T02:40:39;11.48;;;10.50;;
15476;SDS011;7840;42.702;23.296;2022-09-09T02:43:07;11.00;;;9.90;;
15476;SDS011;7840;42.702;23.296;2022-09-09T02:45:36;11.27;;;9.75;;
15476;SDS011;7840;42.702;23.296;2022-09-09T02:48:15;11.40;;;10.40;;
15476;SDS011;7840;42.702;23.296;2022-09-09T02:50:52;12.02;;;10.85;;
15476;SDS011;7840;42.702;23.296;2022-09-09T02:53:30;11.40;;;10.30;;
15476;SDS011;7840;42.702;23.296;2022-09-09T02:56:04;10.73;;;9.82;;
15476;SDS011;7840;42.702;23.296;2022-09-09T02:58:35;10.13;;;9.13;;
15476;SDS011;7840;42.702;23.296;2022-09-09T03:01:07;11.32;;;9.88;;
15476;SDS011;7840;42.702;23.296;2022-09-09T03:03:35;11.30;;;10.30;;
15476;SDS011;7840;42.702;23.296;2022-09-09T03:06:16;10.35;;;9.35;;
15476;SDS011;7840;42.702;23.296;2022-09-09T03:08:44;11.07;;;9.98;;
15476;SDS011;7840;42.702;23.296;2022-09-09T03:11:14;11.43;;;10.25;;
15476;SDS011;7840;42.702;23.296;2022-09-09T03:13:42;10.40;;;9.40;;
15476;SDS011;7840;42.702;23.296;2022-09-09T03:16:11;10.65;;;9.75;;
15476;SDS011;7840;42.702;23.296;2022-09-09T03:18:40;11.38;;;10.27;;
15476;SDS011;7840;42.702;23.296;2022-09-09T03:21:10;10.60;;;9.65;;
15476;SDS011;7840;42.702;23.296;2022-09-09T03:23:43;11.32;;;10.27;;
15476;SDS011;7840;42.702;23.296;2022-09-09T03:26:11;12.15;;;10.60;;
15476;SDS011;7840;42.702;23.296;2022-09-09T03:28:39;10.95;;;9.93;;
15476;SDS011;7840;42.702;23.296;2022-09-09T03:31:20;11.07;;;9.20;;
15476;SDS011;7840;42.702;23.296;2022-09-09T03:33:48;10.93;;;9.90;;
15476;SDS011;7840;42.702;23.296;2022-09-09T03:36:16;10.43;;;9.43;;
15476;SDS011;7840;42.702;23.296;2022-09-09T03:38:44;10.48;;;9.45;;
15476;SDS011;7840;42.702;23.296;2022-09-09T03:41:12;11.18;;;10.13;;
15476;SDS011;7840;42.702;23.296;2022-09-09T03:43:39;10.77;;;9.77;;
15476;SDS011;7840;42.702;23.296;2022-09-09T03:46:07;10.68;;;9.73;;
15476;SDS011;7840;42.702;23.296;2022-09-09T03:48:36;10.68;;;9.70;;
15476;SDS011;7840;42.702;23.296;2022-09-09T03:51:03;13.05;;;10.70;;
15476;SDS011;7840;42.702;23.296;2022-09-09T03:53:31;13.48;;;11.10;;
15476;SDS011;7840;42.702;23.296;2022-09-09T03:55:59;12.23;;;10.85;;
15476;SDS011;7840;42.702;23.296;2022-09-09T03:58:32;11.45;;;10.25;;
15476;SDS011;7840;42.702;23.296;2022-09-09T04:01:01;12.93;;;10.20;;
15476;SDS011;7840;42.702;23.296;2022-09-09T04:03:31;11.52;;;10.23;;
15476;SDS011;7840;42.702;23.296;2022-09-09T04:06:01;11.30;;;10.23;;
15476;SDS011;7840;42.702;23.296;2022-09-09T04:08:31;11.55;;;10.55;;
15476;SDS011;7840;42.702;23.296;2022-09-09T04:10:59;11.48;;;10.45;;
15476;SDS011;7840;42.702;23.296;2022-09-09T04:13:31;17.60;;;9.90;;
15476;SDS011;7840;42.702;23.296;2022-09-09T04:16:00;11.13;;;10.10;;
15476;SDS011;7840;42.702;23.296;2022-09-09T04:18:29;11.68;;;10.43;;
15476;SDS011;7840;42.702;23.296;2022-09-09T04:20:57;12.13;;;10.35;;
15476;SDS011;7840;42.702;23.296;2022-09-09T04:23:27;11.60;;;10.43;;
15476;SDS011;7840;42.702;23.296;2022-09-09T04:25:55;12.02;;;10.32;;
15476;SDS011;7840;42.702;23.296;2022-09-09T04:28:24;12.60;;;10.57;;
15476;SDS011;7840;42.702;23.296;2022-09-09T04:30:54;12.00;;;10.30;;
15476;SDS011;7840;42.702;23.296;2022-09-09T04:33:23;11.57;;;10.38;;
15476;SDS011;7840;42.702;23.296;2022-09-09T04:35:52;17.85;;;10.77;;
15476;SDS011;7840;42.702;23.296;2022-09-09T04:38:20;12.27;;;11.05;;
15476;SDS011;7840;42.702;23.296;2022-09-09T04:40:50;12.15;;;10.85;;
15476;SDS011;7840;42.702;23.296;2022-09-09T04:43:19;15.48;;;10.38;;
15476;SDS011;7840;42.702;23.296;2022-09-09T04:45:51;11.88;;;10.68;;
15476;SDS011;7840;42.702;23.296;2022-09-09T04:48:19;11.98;;;10.70;;
15476;SDS011;7840;42.702;23.296;2022-09-09T04:50:54;13.43;;;10.40;;
15476;SDS011;7840;42.702;23.296;2022-09-09T04:53:22;13.77;;;10.93;;
15476;SDS011;7840;42.702;23.296;2022-09-09T04:55:52;13.52;;;11.57;;
15476;SDS011;7840;42.702;23.296;2022-09-09T04:58:26;11.85;;;10.73;;
15476;SDS011;7840;42.702;23.296;2022-09-09T05:00:54;11.80;;;10.30;;
15476;SDS011;7840;42.702;23.296;2022-09-09T05:03:28;14.68;;;11.38;;
15476;SDS011;7840;42.702;23.296;2022-09-09T05:06:01;16.20;;;12.32;;
15476;SDS011;7840;42.702;23.296;2022-09-09T05:08:31;13.13;;;11.68;;
15476;SDS011;7840;42.702;23.296;2022-09-09T05:11:00;13.25;;;11.88;;
15476;SDS011;7840;42.702;23.296;2022-09-09T05:13:30;14.68;;;11.65;;
15476;SDS011;7840;42.702;23.296;2022-09-09T05:15:57;14.57;;;11.05;;
15476;SDS011;7840;42.702;23.296;2022-09-09T05:18:25;12.82;;;11.55;;
15476;SDS011;7840;42.702;23.296;2022-09-09T05:20:56;10.95;;;9.90;;
15476;SDS011;7840;42.702;23.296;2022-09-09T05:23:26;15.00;;;11.48;;
15476;SDS011;7840;42.702;23.296;2022-09-09T05:25:54;12.20;;;11.00;;
15476;SDS011;7840;42.702;23.296;2022-09-09T05:28:24;12.55;;;11.32;;
15476;SDS011;7840;42.702;23.296;2022-09-09T05:30:56;14.15;;;11.40;;
15476;SDS011;7840;42.702;23.296;2022-09-09T05:33:24;15.32;;;11.38;;
15476;SDS011;7840;42.702;23.296;2022-09-09T05:35:56;13.55;;;10.60;;
15476;SDS011;7840;42.702;23.296;2022-09-09T05:38:24;12.68;;;11.02;;
15476;SDS011;7840;42.702;23.296;2022-09-09T05:40:52;14.13;;;11.27;;
15476;SDS011;7840;42.702;23.296;2022-09-09T05:43:19;11.93;;;10.38;;
15476;SDS011;7840;42.702;23.296;2022-09-09T05:45:58;12.57;;;10.98;;
15476;SDS011;7840;42.702;23.296;2022-09-09T05:48:28;13.88;;;10.38;;
15476;SDS011;7840;42.702;23.296;2022-09-09T05:50:57;12.98;;;11.25;;
15476;SDS011;7840;42.702;23.296;2022-09-09T05:53:27;12.30;;;10.98;;
15476;SDS011;7840;42.702;23.296;2022-09-09T05:56:00;11.90;;;10.80;;
15476;SDS011;7840;42.702;23.296;2022-09-09T05:58:30;12.82;;;11.43;;
15476;SDS011;7840;42.702;23.296;2022-09-09T06:01:03;11.70;;;10.60;;
15476;SDS011;7840;42.702;23.296;2022-09-09T06:03:33;12.00;;;10.85;;
15476;SDS011;7840;42.702;23.296;2022-09-09T06:06:02;11.98;;;10.77;;
15476;SDS011;7840;42.702;23.296;2022-09-09T06:08:31;11.05;;;9.93;;
15476;SDS011;7840;42.702;23.296;2022-09-09T06:11:03;12.43;;;11.13;;
15476;SDS011;7840;42.702;23.296;2022-09-09T06:13:31;12.77;;;10.48;;
15476;SDS011;7840;42.702;23.296;2022-09-09T06:16:00;12.38;;;10.20;;
15476;SDS011;7840;42.702;23.296;2022-09-09T06:18:29;11.48;;;10.35;;
15476;SDS011;7840;42.702;23.296;2022-09-09T06:20:57;10.52;;;9.63;;
15476;SDS011;7840;42.702;23.296;2022-09-09T06:23:27;10.85;;;9.85;;
15476;SDS011;7840;42.702;23.296;2022-09-09T06:26:02;11.23;;;10.23;;
15476;SDS011;7840;42.702;23.296;2022-09-09T06:28:31;14.20;;;10.88;;
15476;SDS011;7840;42.702;23.296;2022-09-09T06:30:58;11.25;;;10.15;;
15476;SDS011;7840;42.702;23.296;2022-09-09T06:33:31;11.27;;;10.18;;
15476;SDS011;7840;42.702;23.296;2022-09-09T06:36:37;11.55;;;10.43;;
15476;SDS011;7840;42.702;23.296;2022-09-09T06:39:29;15.20;;;10.57;;
15476;SDS011;7840;42.702;23.296;2022-09-09T06:41:57;11.80;;;10.10;;
15476;SDS011;7840;42.702;23.296;2022-09-09T06:44:25;10.48;;;9.38;;
15476;SDS011;7840;42.702;23.296;2022-09-09T06:46:52;10.23;;;9.30;;
15476;SDS011;7840;42.702;23.296;2022-09-09T06:49:34;10.30;;;7.13;;
15476;SDS011;7840;42.702;23.296;2022-09-09T06:52:02;8.52;;;7.68;;
15476;SDS011;7840;42.702;23.296;2022-09-09T06:54:30;9.52;;;8.05;;
15476;SDS011;7840;42.702;23.296;2022-09-09T06:56:57;8.52;;;7.32;;
15476;SDS011;7840;42.702;23.296;2022-09-09T06:59:25;8.63;;;7.82;;
15476;SDS011;7840;42.702;23.296;2022-09-09T07:01:53;8.20;;;7.40;;
15476;SDS011;7840;42.702;23.296;2022-09-09T07:04:25;8.93;;;7.22;;
15476;SDS011;7840;42.702;23.296;2022-09-09T07:06:54;8.13;;;7.32;;
15476;SDS011;7840;42.702;23.296;2022-09-09T07:09:31;9.65;;;7.45;;
15476;SDS011;7840;42.702;23.296;2022-09-09T07:11:58;7.57;;;6.90;;
15476;SDS011;7840;42.702;23.296;2022-09-09T07:14:26;9.73;;;6.97;;
15476;SDS011;7840;42.702;23.296;2022-09-09T07:16:54;7.40;;;6.70;;
15476;SDS011;7840;42.702;23.296;2022-09-09T07:19:22;7.93;;;6.93;;
15476;SDS011;7840;42.702;23.296;2022-09-09T07:21:51;8.50;;;6.50;;
15476;SDS011;7840;42.702;23.296;2022-09-09T07:24:19;6.88;;;6.07;;
15476;SDS011;7840;42.702;23.296;2022-09-09T07:26:47;8.13;;;5.65;;
15476;SDS011;7840;42.702;23.296;2022-09-09T07:29:15;6.88;;;6.22;;
15476;SDS011;7840;42.702;23.296;2022-09-09T07:31:42;6.70;;;5.57;;
15476;SDS011;7840;42.702;23.296;2022-09-09T07:34:10;5.93;;;5.43;;
15476;SDS011;7840;42.702;23.296;2022-09-09T07:36:40;6.60;;;5.55;;
15476;SDS011;7840;42.702;23.296;2022-09-09T07:39:08;9.05;;;5.53;;
15476;SDS011;7840;42.702;23.296;2022-09-09T07:41:57;6.25;;;5.65;;
15476;SDS011;7840;42.702;23.296;2022-09-09T07:44:25;6.50;;;5.45;;
15476;SDS011;7840;42.702;23.296;2022-09-09T07:46:53;6.45;;;5.85;;
15476;SDS011;7840;42.702;23.296;2022-09-09T07:49:23;8.23;;;6.78;;
15476;SDS011;7840;42.702;23.296;2022-09-09T07:51:52;6.07;;;5.50;;
15476;SDS011;7840;42.702;23.296;2022-09-09T07:54:20;6.90;;;5.35;;
15476;SDS011;7840;42.702;23.296;2022-09-09T07:56:48;5.38;;;4.93;;
15476;SDS011;7840;42.702;23.296;2022-09-09T07:59:29;5.72;;;5.22;;
15476;SDS011;7840;42.702;23.296;2022-09-09T08:01:57;7.35;;;5.55;;
15476;SDS011;7840;42.702;23.296;2022-09-09T08:04:27;5.95;;;4.93;;
15476;SDS011;7840;42.702;23.296;2022-09-09T08:07:06;5.70;;;5.20;;
15476;SDS011;7840;42.702;23.296;2022-09-09T08:09:36;5.28;;;4.88;;
15476;SDS011;7840;42.702;23.296;2022-09-09T08:12:04;5.78;;;5.18;;
15476;SDS011;7840;42.702;23.296;2022-09-09T08:14:33;6.03;;;5.20;;
15476;SDS011;7840;42.702;23.296;2022-09-09T08:17:01;6.97;;;5.07;;
15476;SDS011;7840;42.702;23.296;2022-09-09T08:19:29;6.20;;;5.47;;
15476;SDS011;7840;42.702;23.296;2022-09-09T08:21:59;5.25;;;4.63;;
15476;SDS011;7840;42.702;23.296;2022-09-09T08:24:29;5.50;;;5.00;;
15476;SDS011;7840;42.702;23.296;2022-09-09T08:26:57;5.47;;;4.70;;
15476;SDS011;7840;42.702;23.296;2022-09-09T08:29:28;5.20;;;4.70;;
15476;SDS011;7840;42.702;23.296;2022-09-09T08:31:56;6.35;;;4.68;;
15476;SDS011;7840;42.702;23.296;2022-09-09T08:34:31;5.68;;;5.13;;
15476;SDS011;7840;42.702;23.296;2022-09-09T08:36:59;5.57;;;5.03;;
15476;SDS011;7840;42.702;23.296;2022-09-09T08:39:26;6.85;;;4.70;;
15476;SDS011;7840;42.702;23.296;2022-09-09T08:42:01;7.03;;;4.82;;
15476;SDS011;7840;42.702;23.296;2022-09-09T08:44:55;5.65;;;4.47;;
15476;SDS011;7840;42.702;23.296;2022-09-09T08:47:58;5.38;;;4.60;;
15476;SDS011;7840;42.702;23.296;2022-09-09T08:50:40;5.30;;;4.80;;
15476;SDS011;7840;42.702;23.296;2022-09-09T08:53:14;5.15;;;4.75;;
15476;SDS011;7840;42.702;23.296;2022-09-09T08:55:49;5.75;;;5.20;;
15476;SDS011;7840;42.702;23.296;2022-09-09T08:58:21;5.18;;;4.68;;
15476;SDS011;7840;42.702;23.296;2022-09-09T09:00:57;5.35;;;4.95;;
15476;SDS011;7840;42.702;23.296;2022-09-09T09:03:48;5.72;;;5.22;;
15476;SDS011;7840;42.702;23.296;2022-09-09T09:06:25;5.30;;;4.80;;
15476;SDS011;7840;42.702;23.296;2022-09-09T09:09:05;6.00;;;5.10;;
15476;SDS011;7840;42.702;23.296;2022-09-09T09:11:40;7.78;;;5.40;;
15476;SDS011;7840;42.702;23.296;2022-09-09T09:14:14;5.85;;;5.28;;
15476;SDS011;7840;42.702;23.296;2022-09-09T09:16:49;6.07;;;5.57;;
15476;SDS011;7840;42.702;23.296;2022-09-09T09:19:26;5.75;;;5.25;;
15476;SDS011;7840;42.702;23.296;2022-09-09T09:21:58;5.72;;;5.07;;
15476;SDS011;7840;42.702;23.296;2022-09-09T09:24:40;6.05;;;5.07;;
15476;SDS011;7840;42.702;23.296;2022-09-09T09:27:18;5.78;;;5.22;;
15476;SDS011;7840;42.702;23.296;2022-09-09T09:30:06;5.78;;;5.28;;
15476;SDS011;7840;42.702;23.296;2022-09-09T09:32:52;5.28;;;4.88;;
15476;SDS011;7840;42.702;23.296;2022-09-09T09:35:24;7.13;;;5.35;;
15476;SDS011;7840;42.702;23.296;2022-09-09T09:37:52;6.82;;;5.28;;
15476;SDS011;7840;42.702;23.296;2022-09-09T09:40:21;5.95;;;5.30;;
15476;SDS011;7840;42.702;23.296;2022-09-09T09:42:52;8.65;;;5.15;;
15476;SDS011;7840;42.702;23.296;2022-09-09T09:45:26;8.80;;;5.45;;
15476;SDS011;7840;42.702;23.296;2022-09-09T09:48:00;5.95;;;5.18;;
15476;SDS011;7840;42.702;23.296;2022-09-09T09:50:29;5.93;;;5.00;;
15476;SDS011;7840;42.702;23.296;2022-09-09T09:53:00;7.55;;;5.38;;
15476;SDS011;7840;42.702;23.296;2022-09-09T09:55:31;8.02;;;5.30;;
15476;SDS011;7840;42.702;23.296;2022-09-09T09:58:04;5.38;;;4.88;;
15476;SDS011;7840;42.702;23.296;2022-09-09T10:00:33;5.97;;;5.43;;
15476;SDS011;7840;42.702;23.296;2022-09-09T10:03:01;7.85;;;5.57;;
15476;SDS011;7840;42.702;23.296;2022-09-09T10:05:46;6.90;;;5.00;;
15476;SDS011;7840;42.702;23.296;2022-09-09T10:08:15;7.03;;;5.10;;
15476;SDS011;7840;42.702;23.296;2022-09-09T10:13:45;6.90;;;6.13;;
15476;SDS011;7840;42.702;23.296;2022-09-09T10:16:24;5.78;;;5.18;;
15476;SDS011;7840;42.702;23.296;2022-09-09T10:19:02;6.45;;;5.63;;
15476;SDS011;7840;42.702;23.296;2022-09-09T10:21:42;6.55;;;5.85;;
15476;SDS011;7840;42.702;23.296;2022-09-09T10:24:33;7.15;;;5.53;;
15476;SDS011;7840;42.702;23.296;2022-09-09T10:27:29;8.85;;;5.97;;
15476;SDS011;7840;42.702;23.296;2022-09-09T10:30:39;7.97;;;5.85;;
15476;SDS011;7840;42.702;23.296;2022-09-09T10:33:16;6.38;;;5.53;;
15476;SDS011;7840;42.702;23.296;2022-09-09T10:35:57;5.93;;;5.32;;
15476;SDS011;7840;42.702;23.296;2022-09-09T10:38:33;5.82;;;5.32;;
15476;SDS011;7840;42.702;23.296;2022-09-09T10:41:18;8.48;;;5.47;;
15476;SDS011;7840;42.702;23.296;2022-09-09T10:43:48;6.88;;;6.20;;
15476;SDS011;7840;42.702;23.296;2022-09-09T10:46:39;10.30;;;6.43;;
15476;SDS011;7840;42.702;23.296;2022-09-09T10:49:23;7.18;;;5.88;;
15476;SDS011;7840;42.702;23.296;2022-09-09T10:52:11;6.30;;;5.70;;
15476;SDS011;7840;42.702;23.296;2022-09-09T10:54:47;6.93;;;5.55;;
15476;SDS011;7840;42.702;23.296;2022-09-09T10:57:27;9.13;;;6.38;;
15476;SDS011;7840;42.702;23.296;2022-09-09T11:00:02;10.07;;;6.65;;
15476;SDS011;7840;42.702;23.296;2022-09-09T11:02:34;9.57;;;6.20;;
15476;SDS011;7840;42.702;23.296;2022-09-09T11:05:05;8.90;;;5.90;;
15476;SDS011;7840;42.702;23.296;2022-09-09T11:07:41;6.75;;;5.57;;
15476;SDS011;7840;42.702;23.296;2022-09-09T11:10:16;6.95;;;6.35;;
15476;SDS011;7840;42.702;23.296;2022-09-09T11:12:49;8.32;;;5.88;;
15476;SDS011;7840;42.702;23.296;2022-09-09T11:15:25;8.50;;;6.43;;
15476;SDS011;7840;42.702;23.296;2022-09-09T11:18:00;7.32;;;6.47;;
15476;SDS011;7840;42.702;23.296;2022-09-09T11:20:33;6.65;;;5.97;;
15476;SDS011;7840;42.702;23.296;2022-09-09T11:23:02;6.13;;;5.47;;
15476;SDS011;7840;42.702;23.296;2022-09-09T11:25:34;6.05;;;5.50;;
15476;SDS011;7840;42.702;23.296;2022-09-09T11:28:20;9.20;;;5.75;;
15476;SDS011;7840;42.702;23.296;2022-09-09T11:31:02;6.22;;;5.63;;
15476;SDS011;7840;42.702;23.296;2022-09-09T11:36:39;6.90;;;5.63;;
15476;SDS011;7840;42.702;23.296;2022-09-09T11:40:04;7.88;;;6.00;;
15476;SDS011;7840;42.702;23.296;2022-09-09T11:42:42;6.05;;;5.45;;
15476;SDS011;7840;42.702;23.296;2022-09-09T11:45:11;7.28;;;5.32;;
15476;SDS011;7840;42.702;23.296;2022-09-09T11:47:51;6.97;;;5.85;;
15476;SDS011;7840;42.702;23.296;2022-09-09T11:50:29;8.15;;;5.57;;
15476;SDS011;7840;42.702;23.296;2022-09-09T11:53:04;8.43;;;5.97;;
15476;SDS011;7840;42.702;23.296;2022-09-09T11:55:48;7.63;;;6.13;;
15476;SDS011;7840;42.702;23.296;2022-09-09T11:58:38;6.65;;;5.55;;
15476;SDS011;7840;42.702;23.296;2022-09-09T12:01:41;6.40;;;5.80;;
15476;SDS011;7840;42.702;23.296;2022-09-09T12:04:21;7.35;;;6.15;;
15476;SDS011;7840;42.702;23.296;2022-09-09T12:06:58;5.82;;;5.32;;
15476;SDS011;7840;42.702;23.296;2022-09-09T12:09:42;7.40;;;6.55;;
15476;SDS011;7840;42.702;23.296;2022-09-09T12:12:24;9.32;;;6.10;;
15476;SDS011;7840;42.702;23.296;2022-09-09T12:14:55;7.95;;;5.82;;
15476;SDS011;7840;42.702;23.296;2022-09-09T12:17:29;6.13;;;5.53;;
15476;SDS011;7840;42.702;23.296;2022-09-09T12:20:13;7.65;;;6.20;;
15476;SDS011;7840;42.702;23.296;2022-09-09T12:22:56;8.93;;;6.90;;
15476;SDS011;7840;42.702;23.296;2022-09-09T12:25:57;6.70;;;5.88;;
15476;SDS011;7840;42.702;23.296;2022-09-09T12:28:57;5.47;;;4.97;;
15476;SDS011;7840;42.702;23.296;2022-09-09T12:31:34;6.82;;;5.80;;
15476;SDS011;7840;42.702;23.296;2022-09-09T12:34:13;7.03;;;5.97;;
15476;SDS011;7840;42.702;23.296;2022-09-09T12:36:45;11.23;;;5.53;;
15476;SDS011;7840;42.702;23.296;2022-09-09T12:39:22;8.52;;;5.78;;
15476;SDS011;7840;42.702;23.296;2022-09-09T12:42:02;6.55;;;5.95;;
15476;SDS011;7840;42.702;23.296;2022-09-09T12:44:30;7.63;;;6.07;;
15476;SDS011;7840;42.702;23.296;2022-09-09T12:47:00;6.70;;;6.00;;
15476;SDS011;7840;42.702;23.296;2022-09-09T12:49:32;10.02;;;5.47;;
15476;SDS011;7840;42.702;23.296;2022-09-09T12:52:25;8.18;;;5.57;;
15476;SDS011;7840;42.702;23.296;2022-09-09T12:54:57;8.30;;;6.28;;
15476;SDS011;7840;42.702;23.296;2022-09-09T12:57:30;7.55;;;6.40;;
15476;SDS011;7840;42.702;23.296;2022-09-09T13:00:08;7.70;;;7.00;;
15476;SDS011;7840;42.702;23.296;2022-09-09T13:02:45;6.85;;;4.88;;
15476;SDS011;7840;42.702;23.296;2022-09-09T13:05:34;7.28;;;4.75;;
15476;SDS011;7840;42.702;23.296;2022-09-09T13:08:08;6.45;;;4.43;;
15476;SDS011;7840;42.702;23.296;2022-09-09T13:10:41;6.43;;;4.90;;
15476;SDS011;7840;42.702;23.296;2022-09-09T13:13:14;9.18;;;4.53;;
15476;SDS011;7840;42.702;23.296;2022-09-09T13:15:48;7.50;;;4.78;;
15476;SDS011;7840;42.702;23.296;2022-09-09T13:18:18;5.13;;;4.57;;
15476;SDS011;7840;42.702;23.296;2022-09-09T13:20:57;7.68;;;4.53;;
15476;SDS011;7840;42.702;23.296;2022-09-09T13:23:28;4.43;;;3.70;;
15476;SDS011;7840;42.702;23.296;2022-09-09T13:25:59;5.80;;;4.57;;
15476;SDS011;7840;42.702;23.296;2022-09-09T13:28:47;5.63;;;4.70;;
15476;SDS011;7840;42.702;23.296;2022-09-09T13:31:20;7.25;;;4.32;;
15476;SDS011;7840;42.702;23.296;2022-09-09T13:33:50;5.32;;;4.32;;
15476;SDS011;7840;42.702;23.296;2022-09-09T13:36:26;7.35;;;4.07;;
15476;SDS011;7840;42.702;23.296;2022-09-09T13:39:00;5.35;;;4.63;;
15476;SDS011;7840;42.702;23.296;2022-09-09T13:41:33;6.40;;;4.15;;
15476;SDS011;7840;42.702;23.296;2022-09-09T13:44:03;5.00;;;4.50;;
15476;SDS011;7840;42.702;23.296;2022-09-09T13:46:34;6.13;;;4.30;;
15476;SDS011;7840;42.702;23.296;2022-09-09T13:49:18;8.20;;;3.97;;
15476;SDS011;7840;42.702;23.296;2022-09-09T13:51:50;6.20;;;4.15;;
15476;SDS011;7840;42.702;23.296;2022-09-09T13:54:30;5.00;;;4.50;;
15476;SDS011;7840;42.702;23.296;2022-09-09T13:56:59;8.02;;;4.50;;
15476;SDS011;7840;42.702;23.296;2022-09-09T13:59:29;4.80;;;4.13;;
15476;SDS011;7840;42.702;23.296;2022-09-09T14:01:58;7.00;;;3.92;;
15476;SDS011;7840;42.702;23.296;2022-09-09T14:04:30;5.25;;;3.90;;
15476;SDS011;7840;42.702;23.296;2022-09-09T14:07:07;5.28;;;4.43;;
15476;SDS011;7840;42.702;23.296;2022-09-09T14:09:39;6.88;;;4.30;;
15476;SDS011;7840;42.702;23.296;2022-09-09T14:12:09;12.68;;;5.13;;
15476;SDS011;7840;42.702;23.296;2022-09-09T14:14:39;7.22;;;4.35;;
15476;SDS011;7840;42.702;23.296;2022-09-09T14:17:07;8.27;;;4.53;;
15476;SDS011;7840;42.702;23.296;2022-09-09T14:19:36;9.98;;;5.07;;
15476;SDS011;7840;42.702;23.296;2022-09-09T14:22:06;12.30;;;5.10;;
15476;SDS011;7840;42.702;23.296;2022-09-09T14:24:35;12.23;;;4.93;;
15476;SDS011;7840;42.702;23.296;2022-09-09T14:27:06;6.88;;;4.60;;
15476;SDS011;7840;42.702;23.296;2022-09-09T14:29:48;10.13;;;4.50;;
15476;SDS011;7840;42.702;23.296;2022-09-09T14:32:17;5.10;;;4.60;;
15476;SDS011;7840;42.702;23.296;2022-09-09T14:34:47;9.43;;;4.75;;
15476;SDS011;7840;42.702;23.296;2022-09-09T14:37:17;10.07;;;5.55;;
15476;SDS011;7840;42.702;23.296;2022-09-09T14:39:47;6.03;;;5.53;;
15476;SDS011;7840;42.702;23.296;2022-09-09T14:42:16;6.07;;;5.40;;
15476;SDS011;7840;42.702;23.296;2022-09-09T14:44:45;9.73;;;5.63;;
15476;SDS011;7840;42.702;23.296;2022-09-09T14:47:14;5.20;;;4.70;;
15476;SDS011;7840;42.702;23.296;2022-09-09T14:49:43;5.93;;;5.38;;
15476;SDS011;7840;42.702;23.296;2022-09-09T14:52:11;9.23;;;5.85;;
15476;SDS011;7840;42.702;23.296;2022-09-09T14:54:41;7.90;;;6.85;;
15476;SDS011;7840;42.702;23.296;2022-09-09T14:57:09;8.20;;;5.47;;
15476;SDS011;7840;42.702;23.296;2022-09-09T14:59:37;6.45;;;5.40;;
15476;SDS011;7840;42.702;23.296;2022-09-09T15:02:05;8.38;;;5.57;;
15476;SDS011;7840;42.702;23.296;2022-09-09T15:04:35;9.05;;;5.53;;
15476;SDS011;7840;42.702;23.296;2022-09-09T15:07:04;7.38;;;5.75;;
15476;SDS011;7840;42.702;23.296;2022-09-09T15:09:32;7.05;;;5.75;;
15476;SDS011;7840;42.702;23.296;2022-09-09T15:12:04;5.82;;;5.32;;
15476;SDS011;7840;42.702;23.296;2022-09-09T15:14:32;6.50;;;4.93;;
15476;SDS011;7840;42.702;23.296;2022-09-09T15:17:00;9.35;;;5.45;;
15476;SDS011;7840;42.702;23.296;2022-09-09T15:19:29;6.70;;;5.70;;
15476;SDS011;7840;42.702;23.296;2022-09-09T15:21:57;6.57;;;5.53;;
15476;SDS011;7840;42.702;23.296;2022-09-09T15:24:26;7.80;;;5.50;;
15476;SDS011;7840;42.702;23.296;2022-09-09T15:26:54;6.22;;;5.63;;